Ascutney, VT (05030)

8:39 PM EDT on September 03, 2015 (GMT -0400)
Ascutney Farm Stand | | Change Station
CLOSE
Current Station
Personal Weather Station
Location: Windsor, VT
Elevation: 427 ft
Nearby Weather Stations

Elev 427 ft 43.41 °N, 72.41 °W | Updated 3 minutes ago

Partly Cloudy
Partly Cloudy
70.3 °F
Feels Like 70.3 °F
N
0.0
Wind Variable Wind from South

Today
High -- | Low -- °F
--% Chance of Precip.
Yesterday
High -- | Low -- °F
Precip. -- in
6:15 AM 7:21 PM
Waning Gibbous, 65% visible
Pressure 29.92 in
Visibility 7.0 miles
Clouds Clear
Dew Point 70 °F
Humidity 99%
Rainfall 0.00 in
Snow Depth Not available.
UV 0 out of 12
Pollen 6.90 out of 12
Air Quality Not available.
Flu Activity Not available.
METAR KVSF 032354Z AUTO 00000KT 7SM CLR 22/21 A2992 RMK AO2 SLP131 60000 T02220211 10283 20222 53016
Pressure 29.92 in
Visibility 7.0 miles
Clouds Clear
Dew Point 70 °F
Humidity 99%
Rainfall 0.00 in
Snow Depth Not available.
UV 0 out of 12
Pollen 6.90 out of 12
Air Quality Not available.
Flu Activity Not available.
METAR KVSF 032354Z AUTO 00000KT 7SM CLR 22/21 A2992 RMK AO2 SLP131 60000 T02220211 10283 20222 53016

10-Day Weather Forecast

×

Almanac

Astronomy

Sep. 03, 2015 Rise Set
Actual Time
Civil Twilight
Nautical Twilight
Astronomical Twilight
Moon
Length of Visible Light
Length of Day
Tomorrow will be .
, % of the Moon is Illuminated

Today's Extremes

State Highs State Lows

Community

WunderPhotos

Upload Photos

1,852,074 photos uploaded!

WunderBlogs® & News

Nearby

Air Quality

  Air Quality AQ Index Pollutant
Not available.

Snow Depth

Station Depth Elevation

Earthquake Activity

City Distance Mag. Time & Date
Minimum magnitude displayed is 2.5.

Coastal Water Temperatures

Place Temperature

Stations

Nearby Weather Stations

Station Location Temp. Windchill Dew Point Humidity Wind Precip. Elev Updated Type